San Brendan — WDE8388 — position and weather

sailwx.info

Track history (hours):
 
Tides and Currents Weather Stations Pressure Air Temp Water Temp Dewpoint Dewpoint Depression Visibility Wind Speed Wind Dir Waves Ship Positions

San Brendan

Owner: Buffalo Marine Service, Inc., Houston, TX. More information available from US FCC via Universal Licensing System and Coast Guard Vessel Documentation Center.

Last reported at 2018-Jul-20 13:10 UTC. Time now 2018-Jul-20 23:52 UTC.
Position N 29°58' W 090°14'.

Length 28 m; draft 3.3 m.

Type: Tug. MMSI: 367404910.

Date/timePositionNaut miles runAvg speedWind from/ knotsBaromVisibWave heightAir tempDewpointWater temp
2018-Jul-20 13:10N 29°58' W 090°14'0 0.0
2018-Jul-20 12:57N 29°58' W 090°14'0 0.0
2018-Jul-20 12:30N 29°58' W 090°14'0 0.0
2018-Jul-20 12:00N 29°58' W 090°14'0 0.0
2018-Jul-20 11:29N 29°58' W 090°14'0 0.0
2018-Jul-20 10:58N 29°58' W 090°14'0 0.0
2018-Jul-20 10:10N 29°58' W 090°14'0 0.0
2018-Jul-20 09:59N 29°58' W 090°14'0 0.0
2018-Jul-20 09:14N 29°58' W 090°14'0 0.0
2018-Jul-20 09:00N 29°58' W 090°14'0 0.0
2018-Jul-20 07:53N 29°58' W 090°14'0 0.0
2018-Jul-20 07:30N 29°58' W 090°14'  
2018-Jul-16 06:41N 31°60' W 091°06'2 9.1
2018-Jul-16 06:30N 32°01' W 091°05'5 8.2
2018-Jul-16 05:57N 32°05' W 091°05'3 4.8
2018-Jul-16 05:25N 32°08' W 091°04'3 7.9
2018-Jul-16 05:00N 32°09' W 091°00'5 9.3
2018-Jul-16 04:30N 32°14' W 090°59'5 9.1
2018-Jul-16 04:00N 32°17' W 090°56'3 6.5
2018-Jul-16 03:30N 32°21' W 090°56'4 8.2
2018-Jul-16 03:00N 32°22' W 091°00'4 7.9
2018-Jul-16 02:30N 32°26' W 091°02'5 9.3
2018-Jul-16 02:00N 32°29' W 091°07'5 9.3
2018-Jul-16 01:30N 32°33' W 091°06'4 9.0
2018-Jul-16 01:00N 32°37' W 091°09'8 8.7
2018-Jul-16 00:07N 32°43' W 091°03'1 8.2
2018-Jul-15 23:58N 32°44' W 091°04'  
Track history (hours):
 
Tides and Currents Weather Stations Pressure Air Temp Water Temp Dewpoint Dewpoint Depression Visibility Wind Speed Wind Dir Waves Ship Positions

San Brendan

Owner: Buffalo Marine Service, Inc., Houston, TX. More information available from US FCC via Universal Licensing System and Coast Guard Vessel Documentation Center.

Last reported at 2018-Jul-20 13:10 UTC. Time now 2018-Jul-20 23:52 UTC.
Position N 29°58' W 090°14'.

Length 28 m; draft 3.3 m.

Type: Tug. MMSI: 367404910.

Date/timePositionNaut miles runAvg speedWind from/ knotsBaromVisibWave heightAir tempDewpointWater temp
2018-Jul-20 13:10N 29°58' W 090°14'0 0.0
2018-Jul-20 12:57N 29°58' W 090°14'0 0.0
2018-Jul-20 12:30N 29°58' W 090°14'0 0.0
2018-Jul-20 12:00N 29°58' W 090°14'0 0.0
2018-Jul-20 11:29N 29°58' W 090°14'0 0.0
2018-Jul-20 10:58N 29°58' W 090°14'0 0.0
2018-Jul-20 10:10N 29°58' W 090°14'0 0.0
2018-Jul-20 09:59N 29°58' W 090°14'0 0.0
2018-Jul-20 09:14N 29°58' W 090°14'0 0.0
2018-Jul-20 09:00N 29°58' W 090°14'0 0.0
2018-Jul-20 07:53N 29°58' W 090°14'0 0.0
2018-Jul-20 07:30N 29°58' W 090°14'  
2018-Jul-16 06:41N 31°60' W 091°06'2 9.1
2018-Jul-16 06:30N 32°01' W 091°05'5 8.2
2018-Jul-16 05:57N 32°05' W 091°05'3 4.8
2018-Jul-16 05:25N 32°08' W 091°04'3 7.9
2018-Jul-16 05:00N 32°09' W 091°00'5 9.3
2018-Jul-16 04:30N 32°14' W 090°59'5 9.1
2018-Jul-16 04:00N 32°17' W 090°56'3 6.5
2018-Jul-16 03:30N 32°21' W 090°56'4 8.2
2018-Jul-16 03:00N 32°22' W 091°00'4 7.9
2018-Jul-16 02:30N 32°26' W 091°02'5 9.3
2018-Jul-16 02:00N 32°29' W 091°07'5 9.3
2018-Jul-16 01:30N 32°33' W 091°06'4 9.0
2018-Jul-16 01:00N 32°37' W 091°09'8 8.7
2018-Jul-16 00:07N 32°43' W 091°03'1 8.2
2018-Jul-15 23:58N 32°44' W 091°04'  

Dump ship's entire track history